Midland, Canada
Current Conditions -  °F | °C
As of 10:33 AM on Friday 28 Nov 2014 (Local Time) from CYQA Reporting Station
Light Snow Light Snow  
Wind Chill:   Ceiling: 1400
Heat Index: 18°   Visibility: 6mi
Dew Point: 12°   Wind: 8mph
Humidity: 79%   Direction: 320°NW
Pressure: 30.18"   Gusts: NA
Location:  44.75°N, 79.89°W
Report Text: CYQA 281533Z AUTO 32007KT 280V350 6SM -SN BKN014 M08/M11 A3018 RMK SLP241
Loading
Personal Weather Stations






























Interactive Weather Map New forecast layout! Learn more

10-Day Weather Forecast

Advertisements
Track Severe Weather on mobile